Aeroporto :







RITROVATECI SU...

 
LOGIN :

Iscrizione | Disclaimer

   EN    FR    IT 

 









Sommario :    VFR   VFR Marginale   IFR   IFR Intensivo   IFR Molto Intensivo
Visibilità : 
Base nubi : 
>= 8 km
>= 3000ft
5 / 8 km
1000 / 3000 ft
1500m / 5 km
500 / 1000 ft
800 / 1500m
200 / 500 ft
< 800m
< 200 ft
Simboli :   Temporali  Nebbia  Neve Forte  Precipitazioni Forti  Vento > 20 kt






- Altitudine del aeroporto : 1442 ft
- Codice IATA : ZUM


CZUM - Churchill Falls

ULTIMO METAR :
  • 251900Z AUTO 22008G16KT 170V250 9SM BKN028 BKN085 M11/M17 A3007 RMK SLP224

METARs OBSOLETI :
  • 251826Z AUTO 24007KT 200V280 9SM BKN030 BKN100 M11/M17 A3007 RMK SLP223
  • 251814Z AUTO 24007G15KT 190V290 2 1/2SM -SN OVC030 M11/M16 A3007 RMK SLP224
  • 251754Z AUTO 24009G15KT 190V280 9SM OVC028 M10/M16 A3007 RMK SLP224
  • 251700Z AUTO 23009G17KT 200V270 9SM -SN OVC028 M10/M16 A3007 RMK SLP224

TAF TAF CZUM
Valido dal 25 a 20 ore il 26 a 08 ore UTC


251938Z 2520/2608 23010KT P6SM BKN030 BKN080
TEMPO 2520/2602 5SM -SN BKN030 OVC050
FM260200 24005KT P6SM BKN015 RMK FCST BASED ON AUTO OBS. NXT FCST BY 260200Z
FIR CZQX / America del Nord



MetMap, La meteo Aeronautica in un colpo d'occhio ! - Copyright ORBIFLY Dicembre 2007 - Disclaimer

ORBIFLY MET'MAP TEAM :

Programmazione e sviluppo : Alexandra Zaïnal
Concezione : Baudouin d'Aumeries
Aiuto per la programmazione : Marc-Olivier Méhu
Supporto tecnico e logistico : Manuel Goepfert
Aiuto per la traduzione : Arnaldo La Scala

Contatto : metmap@orbifly.com




FONTI E CREDITI :

   NOAA